sensor_id;sensor_type;location;lat;lon;timestamp;pressure;altitude;pressure_sealevel;temperature;humidity
19676;BME280;39539;52.202;9.876;2023-05-21T11:41:21;100843.56;;;24.85;66.59
19676;BME280;39539;52.202;9.876;2023-05-21T11:43:59;100833.47;;;24.34;66.88
19676;BME280;39539;52.202;9.876;2023-05-21T11:46:26;100805.41;;;24.58;65.77
19676;BME280;39539;52.202;9.876;2023-05-21T11:48:53;100803.81;;;24.19;68.15
19676;BME280;39539;52.202;9.876;2023-05-21T11:51:20;100800.81;;;24.20;67.85
19676;BME280;39539;52.202;9.876;2023-05-21T11:53:46;100807.34;;;24.19;68.24
19676;BME280;39539;52.202;9.876;2023-05-21T11:56:13;100834.41;;;24.62;67.23
19676;BME280;39539;52.202;9.876;2023-05-21T11:58:41;100833.84;;;24.79;65.31
19676;BME280;39539;52.202;9.876;2023-05-21T12:01:06;100834.22;;;25.05;66.06
19676;BME280;39539;52.202;9.876;2023-05-21T12:03:34;100823.63;;;24.90;64.08
19676;BME280;39539;52.202;9.876;2023-05-21T12:06:04;100820.44;;;25.16;63.71
19676;BME280;39539;52.202;9.876;2023-05-21T12:08:30;100823.97;;;25.16;62.10
19676;BME280;39539;52.202;9.876;2023-05-21T12:10:59;100810.81;;;24.91;62.12
19676;BME280;39539;52.202;9.876;2023-05-21T12:13:28;100813.84;;;24.89;65.49
19676;BME280;39539;52.202;9.876;2023-05-21T12:15:54;100790.47;;;25.02;65.02
19676;BME280;39539;52.202;9.876;2023-05-21T12:18:29;100812.50;;;25.33;63.22
19676;BME280;39539;52.202;9.876;2023-05-21T12:20:54;100805.53;;;25.41;62.08
19676;BME280;39539;52.202;9.876;2023-05-21T12:23:23;100801.97;;;25.13;63.39
19676;BME280;39539;52.202;9.876;2023-05-21T12:25:50;100797.03;;;25.01;65.66
19676;BME280;39539;52.202;9.876;2023-05-21T12:28:15;100797.91;;;25.29;65.23
19676;BME280;39539;52.202;9.876;2023-05-21T12:30:47;100778.63;;;25.12;63.75
19676;BME280;39539;52.202;9.876;2023-05-21T12:33:12;100798.97;;;25.42;60.08
19676;BME280;39539;52.202;9.876;2023-05-21T12:35:38;100793.84;;;25.40;63.59
19676;BME280;39539;52.202;9.876;2023-05-21T12:38:03;100775.31;;;25.28;62.81
19676;BME280;39539;52.202;9.876;2023-05-21T12:40:38;100786.94;;;25.84;61.31
19676;BME280;39539;52.202;9.876;2023-05-21T12:43:04;100794.63;;;25.68;61.71
19676;BME280;39539;52.202;9.876;2023-05-21T12:45:31;100773.41;;;25.93;59.69
19676;BME280;39539;52.202;9.876;2023-05-21T12:48:00;100796.31;;;25.92;59.97
19676;BME280;39539;52.202;9.876;2023-05-21T12:50:26;100772.25;;;25.85;60.04
19676;BME280;39539;52.202;9.876;2023-05-21T12:52:55;100782.31;;;25.71;59.51
19676;BME280;39539;52.202;9.876;2023-05-21T12:55:25;100783.28;;;26.03;58.09
19676;BME280;39539;52.202;9.876;2023-05-21T12:58:02;100758.34;;;25.59;60.12
19676;BME280;39539;52.202;9.876;2023-05-21T13:00:32;100778.47;;;25.72;59.25
19676;BME280;39539;52.202;9.876;2023-05-21T13:02:59;100782.72;;;25.64;59.81
19676;BME280;39539;52.202;9.876;2023-05-21T13:05:26;100777.09;;;25.61;61.18
19676;BME280;39539;52.202;9.876;2023-05-21T13:07:51;100774.47;;;25.56;61.36
19676;BME280;39539;52.202;9.876;2023-05-21T13:10:16;100770.88;;;25.33;61.58
19676;BME280;39539;52.202;9.876;2023-05-21T13:12:42;100759.59;;;25.75;61.15
19676;BME280;39539;52.202;9.876;2023-05-21T13:15:08;100780.28;;;25.90;58.42
19676;BME280;39539;52.202;9.876;2023-05-21T13:17:34;100775.22;;;26.20;57.89
19676;BME280;39539;52.202;9.876;2023-05-21T13:20:08;100757.22;;;26.10;59.49
19676;BME280;39539;52.202;9.876;2023-05-21T13:22:37;100747.00;;;25.80;60.05
19676;BME280;39539;52.202;9.876;2023-05-21T13:25:22;100744.75;;;25.59;61.38
19676;BME280;39539;52.202;9.876;2023-05-21T13:27:50;100753.50;;;25.56;62.14
19676;BME280;39539;52.202;9.876;2023-05-21T13:30:17;100753.47;;;25.70;61.10
19676;BME280;39539;52.202;9.876;2023-05-21T13:32:43;100736.09;;;25.80;58.06
19676;BME280;39539;52.202;9.876;2023-05-21T13:35:09;100729.25;;;25.82;58.87
19676;BME280;39539;52.202;9.876;2023-05-21T13:37:38;100722.03;;;25.64;60.66
19676;BME280;39539;52.202;9.876;2023-05-21T13:40:08;100740.59;;;25.98;56.81
19676;BME280;39539;52.202;9.876;2023-05-21T13:42:35;100742.16;;;25.90;58.56
19676;BME280;39539;52.202;9.876;2023-05-21T13:45:08;100724.63;;;25.69;56.56
19676;BME280;39539;52.202;9.876;2023-05-21T13:47:36;100722.16;;;25.81;56.55
19676;BME280;39539;52.202;9.876;2023-05-21T13:50:02;100709.28;;;25.73;57.77
19676;BME280;39539;52.202;9.876;2023-05-21T13:52:29;100710.44;;;25.58;57.26
19676;BME280;39539;52.202;9.876;2023-05-21T13:54:54;100719.41;;;25.59;56.97
19676;BME280;39539;52.202;9.876;2023-05-21T13:57:19;100720.09;;;25.64;57.51
19676;BME280;39539;52.202;9.876;2023-05-21T13:59:45;100716.88;;;25.76;56.87
19676;BME280;39539;52.202;9.876;2023-05-21T14:02:10;100720.78;;;25.70;56.49
19676;BME280;39539;52.202;9.876;2023-05-21T14:04:36;100713.69;;;25.96;56.26
19676;BME280;39539;52.202;9.876;2023-05-21T14:07:02;100715.03;;;26.08;55.63
19676;BME280;39539;52.202;9.876;2023-05-21T14:09:30;100705.84;;;26.26;54.59
19676;BME280;39539;52.202;9.876;2023-05-21T14:11:56;100712.31;;;26.53;56.12
19676;BME280;39539;52.202;9.876;2023-05-21T14:14:22;100702.31;;;26.79;55.39
19676;BME280;39539;52.202;9.876;2023-05-21T14:16:51;100698.44;;;26.49;56.55
19676;BME280;39539;52.202;9.876;2023-05-21T14:19:17;100682.72;;;26.77;54.50
19676;BME280;39539;52.202;9.876;2023-05-21T14:21:44;100701.91;;;26.63;54.73
19676;BME280;39539;52.202;9.876;2023-05-21T14:24:09;100699.66;;;26.65;55.46
19676;BME280;39539;52.202;9.876;2023-05-21T14:26:39;100684.63;;;26.77;52.86
19676;BME280;39539;52.202;9.876;2023-05-21T14:29:14;100694.63;;;26.81;53.75
19676;BME280;39539;52.202;9.876;2023-05-21T14:31:39;100682.28;;;26.84;52.98
19676;BME280;39539;52.202;9.876;2023-05-21T14:34:05;100675.16;;;26.74;52.69
19676;BME280;39539;52.202;9.876;2023-05-21T14:36:36;100684.97;;;26.44;52.94
19676;BME280;39539;52.202;9.876;2023-05-21T14:39:02;100669.97;;;26.55;51.95
19676;BME280;39539;52.202;9.876;2023-05-21T14:41:28;100653.06;;;26.45;51.47
19676;BME280;39539;52.202;9.876;2023-05-21T14:43:54;100672.50;;;26.52;50.62
19676;BME280;39539;52.202;9.876;2023-05-21T14:46:20;100683.91;;;26.54;49.30
19676;BME280;39539;52.202;9.876;2023-05-21T14:48:48;100681.91;;;26.46;49.33
19676;BME280;39539;52.202;9.876;2023-05-21T14:51:13;100668.06;;;26.33;50.42
19676;BME280;39539;52.202;9.876;2023-05-21T14:53:40;100675.03;;;26.17;50.43
19676;BME280;39539;52.202;9.876;2023-05-21T14:56:07;100690.19;;;26.32;51.36
19676;BME280;39539;52.202;9.876;2023-05-21T14:58:32;100667.44;;;26.36;50.29
19676;BME280;39539;52.202;9.876;2023-05-21T15:01:01;100670.25;;;26.23;50.93
19676;BME280;39539;52.202;9.876;2023-05-21T15:03:29;100679.97;;;26.15;50.84
19676;BME280;39539;52.202;9.876;2023-05-21T15:05:55;100658.19;;;25.92;51.16
19676;BME280;39539;52.202;9.876;2023-05-21T15:08:21;100654.50;;;25.88;50.90
19676;BME280;39539;52.202;9.876;2023-05-21T15:10:47;100673.50;;;26.02;50.67
19676;BME280;39539;52.202;9.876;2023-05-21T15:13:12;100645.19;;;25.89;50.78
19676;BME280;39539;52.202;9.876;2023-05-21T15:15:37;100668.47;;;25.95;51.54
19676;BME280;39539;52.202;9.876;2023-05-21T15:18:04;100654.63;;;25.83;51.46
19676;BME280;39539;52.202;9.876;2023-05-21T15:20:33;100643.44;;;25.71;52.29
19676;BME280;39539;52.202;9.876;2023-05-21T15:23:00;100660.75;;;25.89;52.14
19676;BME280;39539;52.202;9.876;2023-05-21T15:25:26;100645.09;;;25.81;52.22
19676;BME280;39539;52.202;9.876;2023-05-21T15:27:53;100649.16;;;25.83;52.19
19676;BME280;39539;52.202;9.876;2023-05-21T15:30:19;100652.75;;;25.92;52.69
19676;BME280;39539;52.202;9.876;2023-05-21T15:32:46;100659.25;;;25.83;51.65
19676;BME280;39539;52.202;9.876;2023-05-21T15:35:13;100647.41;;;25.87;51.70
19676;BME280;39539;52.202;9.876;2023-05-21T15:37:38;100645.25;;;25.98;51.04
19676;BME280;39539;52.202;9.876;2023-05-21T15:40:04;100651.44;;;26.12;50.87
19676;BME280;39539;52.202;9.876;2023-05-21T15:42:38;100649.16;;;26.06;51.13
19676;BME280;39539;52.202;9.876;2023-05-21T15:45:03;100654.72;;;26.01;51.85
19676;BME280;39539;52.202;9.876;2023-05-21T15:47:29;100650.91;;;26.02;52.59
19676;BME280;39539;52.202;9.876;2023-05-21T15:49:54;100646.56;;;26.01;51.81
19676;BME280;39539;52.202;9.876;2023-05-21T15:52:21;100628.56;;;25.91;51.09
19676;BME280;39539;52.202;9.876;2023-05-21T15:54:48;100644.50;;;26.06;51.22
19676;BME280;39539;52.202;9.876;2023-05-21T15:57:17;100645.56;;;25.96;51.77
19676;BME280;39539;52.202;9.876;2023-05-21T15:59:51;100631.06;;;25.87;51.12
19676;BME280;39539;52.202;9.876;2023-05-21T16:02:42;100637.19;;;25.93;51.32
19676;BME280;39539;52.202;9.876;2023-05-21T16:05:13;100617.69;;;25.77;51.13
19676;BME280;39539;52.202;9.876;2023-05-21T16:07:40;100640.38;;;25.86;51.97
19676;BME280;39539;52.202;9.876;2023-05-21T16:10:08;100638.66;;;25.90;51.78
19676;BME280;39539;52.202;9.876;2023-05-21T16:12:37;100629.19;;;25.88;51.35
19676;BME280;39539;52.202;9.876;2023-05-21T16:15:04;100626.38;;;25.79;51.80
19676;BME280;39539;52.202;9.876;2023-05-21T16:17:30;100622.97;;;25.73;52.23
19676;BME280;39539;52.202;9.876;2023-05-21T16:19:58;100613.13;;;25.64;52.12
19676;BME280;39539;52.202;9.876;2023-05-21T16:22:24;100623.38;;;25.67;52.32
19676;BME280;39539;52.202;9.876;2023-05-21T16:24:50;100631.44;;;25.72;51.72
19676;BME280;39539;52.202;9.876;2023-05-21T16:27:15;100623.09;;;25.68;52.70
19676;BME280;39539;52.202;9.876;2023-05-21T16:29:41;100616.34;;;25.66;52.65
19676;BME280;39539;52.202;9.876;2023-05-21T16:32:06;100625.38;;;25.75;52.79
19676;BME280;39539;52.202;9.876;2023-05-21T16:34:32;100622.03;;;25.78;52.73
19676;BME280;39539;52.202;9.876;2023-05-21T16:36:59;100636.06;;;25.85;52.99
19676;BME280;39539;52.202;9.876;2023-05-21T16:39:25;100623.22;;;25.86;52.41
19676;BME280;39539;52.202;9.876;2023-05-21T16:41:50;100623.53;;;25.84;51.89
19676;BME280;39539;52.202;9.876;2023-05-21T16:44:16;100609.66;;;25.72;51.33
19676;BME280;39539;52.202;9.876;2023-05-21T16:46:41;100617.19;;;25.75;51.38
19676;BME280;39539;52.202;9.876;2023-05-21T16:49:07;100623.78;;;25.74;51.94
19676;BME280;39539;52.202;9.876;2023-05-21T16:51:32;100616.34;;;25.66;51.81
19676;BME280;39539;52.202;9.876;2023-05-21T16:53:58;100613.28;;;25.67;51.47
19676;BME280;39539;52.202;9.876;2023-05-21T16:56:23;100609.53;;;25.54;52.49
19676;BME280;39539;52.202;9.876;2023-05-21T16:58:50;100610.94;;;25.52;52.55
19676;BME280;39539;52.202;9.876;2023-05-21T17:01:15;100610.88;;;25.43;53.33
19676;BME280;39539;52.202;9.876;2023-05-21T17:03:41;100614.84;;;25.37;54.04
19676;BME280;39539;52.202;9.876;2023-05-21T17:06:07;100618.81;;;25.31;54.11
19676;BME280;39539;52.202;9.876;2023-05-21T17:08:32;100617.78;;;25.27;54.30
19676;BME280;39539;52.202;9.876;2023-05-21T17:10:57;100618.50;;;25.19;54.11
19676;BME280;39539;52.202;9.876;2023-05-21T17:13:23;100625.06;;;25.18;53.49
19676;BME280;39539;52.202;9.876;2023-05-21T17:15:49;100621.22;;;25.19;54.44
19676;BME280;39539;52.202;9.876;2023-05-21T17:18:15;100623.22;;;25.13;54.76
19676;BME280;39539;52.202;9.876;2023-05-21T17:20:40;100625.75;;;25.09;54.94
19676;BME280;39539;52.202;9.876;2023-05-21T17:23:08;100617.41;;;25.06;54.89
19676;BME280;39539;52.202;9.876;2023-05-21T17:25:33;100623.16;;;25.04;54.38
19676;BME280;39539;52.202;9.876;2023-05-21T17:27:59;100623.16;;;24.91;54.71
19676;BME280;39539;52.202;9.876;2023-05-21T17:30:24;100628.31;;;24.78;55.56
19676;BME280;39539;52.202;9.876;2023-05-21T17:32:49;100607.69;;;24.63;55.42
19676;BME280;39539;52.202;9.876;2023-05-21T17:35:15;100625.81;;;24.68;56.27
19676;BME280;39539;52.202;9.876;2023-05-21T17:37:40;100621.38;;;24.58;56.42
19676;BME280;39539;52.202;9.876;2023-05-21T17:40:06;100610.31;;;24.55;56.83
19676;BME280;39539;52.202;9.876;2023-05-21T17:42:32;100616.13;;;24.62;56.51
19676;BME280;39539;52.202;9.876;2023-05-21T17:44:57;100623.31;;;24.58;57.03
19676;BME280;39539;52.202;9.876;2023-05-21T17:47:22;100625.41;;;24.61;57.02
19676;BME280;39539;52.202;9.876;2023-05-21T17:49:48;100627.84;;;24.49;57.44
19676;BME280;39539;52.202;9.876;2023-05-21T17:52:13;100622.69;;;24.47;57.49
19676;BME280;39539;52.202;9.876;2023-05-21T17:54:38;100623.97;;;24.36;57.70
19676;BME280;39539;52.202;9.876;2023-05-21T17:57:04;100626.84;;;24.26;58.82
19676;BME280;39539;52.202;9.876;2023-05-21T17:59:29;100611.47;;;24.21;57.92
19676;BME280;39539;52.202;9.876;2023-05-21T18:01:55;100624.13;;;24.26;57.91
19676;BME280;39539;52.202;9.876;2023-05-21T18:04:20;100630.59;;;24.30;58.31
19676;BME280;39539;52.202;9.876;2023-05-21T18:06:45;100628.97;;;24.15;58.90
19676;BME280;39539;52.202;9.876;2023-05-21T18:09:11;100628.66;;;24.16;58.75
19676;BME280;39539;52.202;9.876;2023-05-21T18:11:38;100624.81;;;24.17;58.47
19676;BME280;39539;52.202;9.876;2023-05-21T18:14:03;100628.66;;;24.16;57.82
19676;BME280;39539;52.202;9.876;2023-05-21T18:16:29;100636.19;;;24.19;57.50
19676;BME280;39539;52.202;9.876;2023-05-21T18:18:56;100623.88;;;23.94;58.72
19676;BME280;39539;52.202;9.876;2023-05-21T18:21:21;100620.16;;;23.90;58.51
19676;BME280;39539;52.202;9.876;2023-05-21T18:23:46;100621.03;;;23.86;58.76
19676;BME280;39539;52.202;9.876;2023-05-21T18:26:12;100624.84;;;23.85;58.94
19676;BME280;39539;52.202;9.876;2023-05-21T18:28:37;100638.44;;;23.85;58.80
19676;BME280;39539;52.202;9.876;2023-05-21T18:31:03;100634.69;;;23.81;59.53
19676;BME280;39539;52.202;9.876;2023-05-21T18:33:31;100631.03;;;23.71;60.10
19676;BME280;39539;52.202;9.876;2023-05-21T18:35:57;100616.75;;;23.47;61.73
19676;BME280;39539;52.202;9.876;2023-05-21T18:38:22;100635.56;;;23.38;63.76
19676;BME280;39539;52.202;9.876;2023-05-21T18:40:51;100624.44;;;23.21;64.36
19676;BME280;39539;52.202;9.876;2023-05-21T18:43:17;100633.38;;;23.21;64.28
19676;BME280;39539;52.202;9.876;2023-05-21T18:45:43;100625.44;;;23.06;64.71
19676;BME280;39539;52.202;9.876;2023-05-21T18:48:08;100638.72;;;23.07;64.65
19676;BME280;39539;52.202;9.876;2023-05-21T18:50:34;100634.69;;;23.05;64.59
19676;BME280;39539;52.202;9.876;2023-05-21T18:53:01;100643.41;;;23.02;64.44
19676;BME280;39539;52.202;9.876;2023-05-21T18:55:26;100644.47;;;23.01;63.89
19676;BME280;39539;52.202;9.876;2023-05-21T18:57:51;100639.16;;;22.96;64.33
19676;BME280;39539;52.202;9.876;2023-05-21T19:00:17;100650.03;;;22.91;64.07
19676;BME280;39539;52.202;9.876;2023-05-21T19:02:43;100642.47;;;22.88;63.88
19676;BME280;39539;52.202;9.876;2023-05-21T19:05:08;100637.75;;;22.74;63.86
19676;BME280;39539;52.202;9.876;2023-05-21T19:07:34;100645.97;;;22.64;64.84
19676;BME280;39539;52.202;9.876;2023-05-21T19:10:03;100656.25;;;22.67;64.28
19676;BME280;39539;52.202;9.876;2023-05-21T19:12:29;100656.81;;;22.64;64.37
19676;BME280;39539;52.202;9.876;2023-05-21T19:14:58;100665.34;;;22.52;65.93
19676;BME280;39539;52.202;9.876;2023-05-21T19:17:23;100666.13;;;22.29;67.84
19676;BME280;39539;52.202;9.876;2023-05-21T19:19:49;100667.72;;;21.95;69.71
19676;BME280;39539;52.202;9.876;2023-05-21T19:22:23;100668.34;;;21.82;70.61
19676;BME280;39539;52.202;9.876;2023-05-21T19:24:48;100675.47;;;21.73;71.14
19676;BME280;39539;52.202;9.876;2023-05-21T19:27:14;100659.06;;;21.59;72.01
19676;BME280;39539;52.202;9.876;2023-05-21T19:29:40;100675.78;;;21.66;72.95
19676;BME280;39539;52.202;9.876;2023-05-21T19:32:06;100680.41;;;21.66;73.53
19676;BME280;39539;52.202;9.876;2023-05-21T19:34:31;100681.50;;;21.60;73.50
19676;BME280;39539;52.202;9.876;2023-05-21T19:36:57;100680.22;;;21.52;73.66
19676;BME280;39539;52.202;9.876;2023-05-21T19:39:22;100695.13;;;21.44;74.61
19676;BME280;39539;52.202;9.876;2023-05-21T19:41:48;100689.78;;;21.29;76.30
19676;BME280;39539;52.202;9.876;2023-05-21T19:44:13;100691.16;;;21.21;76.49
19676;BME280;39539;52.202;9.876;2023-05-21T19:46:38;100689.56;;;21.15;76.38
19676;BME280;39539;52.202;9.876;2023-05-21T19:49:04;100697.13;;;21.13;75.98
19676;BME280;39539;52.202;9.876;2023-05-21T19:51:30;100695.81;;;21.00;77.13
19676;BME280;39539;52.202;9.876;2023-05-21T19:53:55;100709.38;;;20.95;77.04
19676;BME280;39539;52.202;9.876;2023-05-21T19:56:20;100679.72;;;20.65;78.71
19676;BME280;39539;52.202;9.876;2023-05-21T19:58:46;100705.09;;;20.69;78.51
19676;BME280;39539;52.202;9.876;2023-05-21T20:01:14;100695.38;;;20.57;78.35
19676;BME280;39539;52.202;9.876;2023-05-21T20:03:39;100707.78;;;20.74;77.27
19676;BME280;39539;52.202;9.876;2023-05-21T20:06:07;100708.59;;;20.74;76.41
19676;BME280;39539;52.202;9.876;2023-05-21T20:08:33;100710.72;;;20.88;75.13
19676;BME280;39539;52.202;9.876;2023-05-21T20:10:58;100717.75;;;20.94;74.86
19676;BME280;39539;52.202;9.876;2023-05-21T20:13:23;100715.59;;;20.85;75.40
19676;BME280;39539;52.202;9.876;2023-05-21T20:15:49;100720.75;;;20.82;75.58
19676;BME280;39539;52.202;9.876;2023-05-21T20:18:16;100708.09;;;20.67;75.62
19676;BME280;39539;52.202;9.876;2023-05-21T20:20:42;100734.81;;;20.69;76.46
19676;BME280;39539;52.202;9.876;2023-05-21T20:23:07;100723.75;;;20.60;76.39
19676;BME280;39539;52.202;9.876;2023-05-21T20:25:32;100728.06;;;20.46;77.69
19676;BME280;39539;52.202;9.876;2023-05-21T20:27:58;100732.94;;;20.59;76.57
19676;BME280;39539;52.202;9.876;2023-05-21T20:30:30;100725.09;;;20.57;75.97
19676;BME280;39539;52.202;9.876;2023-05-21T20:32:56;100727.81;;;20.62;74.97
19676;BME280;39539;52.202;9.876;2023-05-21T20:35:21;100745.31;;;20.80;74.33
19676;BME280;39539;52.202;9.876;2023-05-21T20:37:47;100757.22;;;20.84;75.17
19676;BME280;39539;52.202;9.876;2023-05-21T20:40:13;100744.25;;;20.76;76.18
19676;BME280;39539;52.202;9.876;2023-05-21T20:42:38;100747.25;;;20.65;77.91
19676;BME280;39539;52.202;9.876;2023-05-21T20:45:04;100719.44;;;20.33;80.11
19676;BME280;39539;52.202;9.876;2023-05-21T20:47:30;100744.00;;;20.32;80.98
19676;BME280;39539;52.202;9.876;2023-05-21T20:49:56;100736.16;;;20.15;81.53
19676;BME280;39539;52.202;9.876;2023-05-21T20:52:22;100737.50;;;20.12;79.68
19676;BME280;39539;52.202;9.876;2023-05-21T20:54:52;100735.34;;;20.09;79.37
19676;BME280;39539;52.202;9.876;2023-05-21T20:57:21;100745.59;;;20.17;78.69
19676;BME280;39539;52.202;9.876;2023-05-21T20:59:48;100753.69;;;20.17;78.54
19676;BME280;39539;52.202;9.876;2023-05-21T21:02:15;100746.69;;;19.96;80.98
19676;BME280;39539;52.202;9.876;2023-05-21T21:04:41;100742.88;;;19.82;82.65
19676;BME280;39539;52.202;9.876;2023-05-21T21:07:07;100753.56;;;19.61;84.95
19676;BME280;39539;52.202;9.876;2023-05-21T21:09:34;100743.22;;;19.38;86.56
19676;BME280;39539;52.202;9.876;2023-05-21T21:11:59;100756.16;;;19.31;87.90
19676;BME280;39539;52.202;9.876;2023-05-21T21:14:25;100755.03;;;19.26;86.73
19676;BME280;39539;52.202;9.876;2023-05-21T21:16:51;100752.91;;;19.28;85.81
19676;BME280;39539;52.202;9.876;2023-05-21T21:19:16;100759.44;;;19.43;83.86
19676;BME280;39539;52.202;9.876;2023-05-21T21:21:43;100758.41;;;19.54;81.92
19676;BME280;39539;52.202;9.876;2023-05-21T21:24:08;100760.31;;;19.64;80.16
19676;BME280;39539;52.202;9.876;2023-05-21T21:26:33;100760.66;;;19.78;78.44
19676;BME280;39539;52.202;9.876;2023-05-21T21:28:59;100754.75;;;19.86;77.84
19676;BME280;39539;52.202;9.876;2023-05-21T21:31:24;100766.63;;;19.95;77.18
19676;BME280;39539;52.202;9.876;2023-05-21T21:33:50;100761.22;;;19.95;76.96
19676;BME280;39539;52.202;9.876;2023-05-21T21:36:15;100749.91;;;19.88;76.80
19676;BME280;39539;52.202;9.876;2023-05-21T21:38:41;100741.81;;;19.93;76.92
19676;BME280;39539;52.202;9.876;2023-05-21T21:41:06;100755.56;;;19.96;76.74
19676;BME280;39539;52.202;9.876;2023-05-21T21:43:31;100742.88;;;19.97;76.73
19676;BME280;39539;52.202;9.876;2023-05-21T21:45:58;100739.94;;;19.93;76.66
19676;BME280;39539;52.202;9.876;2023-05-21T21:48:24;100755.84;;;20.00;76.64
19676;BME280;39539;52.202;9.876;2023-05-21T21:50:49;100749.38;;;19.96;76.70
19676;BME280;39539;52.202;9.876;2023-05-21T21:53:14;100742.03;;;19.81;77.61
19676;BME280;39539;52.202;9.876;2023-05-21T21:55:40;100733.66;;;19.67;77.88
19676;BME280;39539;52.202;9.876;2023-05-21T21:58:05;100757.97;;;19.78;77.87
19676;BME280;39539;52.202;9.876;2023-05-21T22:00:32;100745.56;;;19.77;77.02
19676;BME280;39539;52.202;9.876;2023-05-21T22:02:57;100732.59;;;19.73;76.67
19676;BME280;39539;52.202;9.876;2023-05-21T22:05:22;100740.88;;;19.57;78.25
19676;BME280;39539;52.202;9.876;2023-05-21T22:07:50;100749.78;;;19.57;78.14
19676;BME280;39539;52.202;9.876;2023-05-21T22:10:16;100747.34;;;19.50;78.30
19676;BME280;39539;52.202;9.876;2023-05-21T22:12:42;100750.84;;;19.51;78.84
19676;BME280;39539;52.202;9.876;2023-05-21T22:15:16;100751.31;;;19.38;79.31
19676;BME280;39539;52.202;9.876;2023-05-21T22:17:42;100731.88;;;19.25;79.87
19676;BME280;39539;52.202;9.876;2023-05-21T22:20:07;100727.00;;;19.22;79.54
19676;BME280;39539;52.202;9.876;2023-05-21T22:22:35;100738.31;;;19.19;80.58
19676;BME280;39539;52.202;9.876;2023-05-21T22:25:00;100751.28;;;19.22;80.17
19676;BME280;39539;52.202;9.876;2023-05-21T22:27:26;100742.06;;;19.18;80.40
19676;BME280;39539;52.202;9.876;2023-05-21T22:29:51;100744.44;;;19.10;80.79
19676;BME280;39539;52.202;9.876;2023-05-21T22:32:16;100747.72;;;19.12;79.75
19676;BME280;39539;52.202;9.876;2023-05-21T22:34:42;100750.13;;;19.08;79.65
19676;BME280;39539;52.202;9.876;2023-05-21T22:37:07;100751.69;;;19.04;80.36
19676;BME280;39539;52.202;9.876;2023-05-21T22:39:33;100728.75;;;18.96;80.11
19676;BME280;39539;52.202;9.876;2023-05-21T22:41:58;100742.81;;;19.03;79.65
19676;BME280;39539;52.202;9.876;2023-05-21T22:44:25;100728.75;;;18.96;79.82
19676;BME280;39539;52.202;9.876;2023-05-21T22:46:50;100745.38;;;18.83;80.80
19676;BME280;39539;52.202;9.876;2023-05-21T22:49:15;100736.75;;;18.81;80.65
19676;BME280;39539;52.202;9.876;2023-05-21T22:51:41;100744.22;;;18.74;81.38
19676;BME280;39539;52.202;9.876;2023-05-21T22:54:09;100734.94;;;18.59;82.17
19676;BME280;39539;52.202;9.876;2023-05-21T22:56:34;100757.31;;;18.60;82.55
19676;BME280;39539;52.202;9.876;2023-05-21T22:59:00;100745.66;;;18.49;82.37
19676;BME280;39539;52.202;9.876;2023-05-21T23:01:25;100753.47;;;18.51;82.67
19676;BME280;39539;52.202;9.876;2023-05-21T23:03:50;100741.25;;;18.38;82.33
19676;BME280;39539;52.202;9.876;2023-05-21T23:06:16;100760.50;;;18.52;82.04
19676;BME280;39539;52.202;9.876;2023-05-21T23:08:41;100752.88;;;18.44;81.64
19676;BME280;39539;52.202;9.876;2023-05-21T23:11:06;100749.63;;;18.42;81.92
19676;BME280;39539;52.202;9.876;2023-05-21T23:13:32;100761.25;;;18.47;80.99
19676;BME280;39539;52.202;9.876;2023-05-21T23:15:57;100757.00;;;18.56;80.12
19676;BME280;39539;52.202;9.876;2023-05-21T23:18:24;100753.47;;;18.51;80.48
19676;BME280;39539;52.202;9.876;2023-05-21T23:20:49;100755.34;;;18.50;80.63
19676;BME280;39539;52.202;9.876;2023-05-21T23:23:15;100767.44;;;18.48;80.97
19676;BME280;39539;52.202;9.876;2023-05-21T23:25:41;100761.47;;;18.40;80.80
19676;BME280;39539;52.202;9.876;2023-05-21T23:28:06;100771.97;;;18.42;80.85
19676;BME280;39539;52.202;9.876;2023-05-21T23:30:31;100762.53;;;18.39;81.03
19676;BME280;39539;52.202;9.876;2023-05-21T23:32:57;100765.53;;;18.43;80.73
19676;BME280;39539;52.202;9.876;2023-05-21T23:35:22;100772.19;;;18.35;81.28
19676;BME280;39539;52.202;9.876;2023-05-21T23:37:47;100759.81;;;18.34;81.32
19676;BME280;39539;52.202;9.876;2023-05-21T23:40:13;100756.16;;;18.18;82.13
19676;BME280;39539;52.202;9.876;2023-05-21T23:42:38;100762.56;;;18.12;81.97
19676;BME280;39539;52.202;9.876;2023-05-21T23:45:04;100765.09;;;18.24;81.69
19676;BME280;39539;52.202;9.876;2023-05-21T23:47:29;100768.88;;;18.23;81.88
19676;BME280;39539;52.202;9.876;2023-05-21T23:49:55;100746.84;;;17.99;82.39
19676;BME280;39539;52.202;9.876;2023-05-21T23:52:20;100757.06;;;18.02;82.74
19676;BME280;39539;52.202;9.876;2023-05-21T23:54:48;100760.13;;;18.11;82.25
19676;BME280;39539;52.202;9.876;2023-05-21T23:57:13;100751.41;;;17.99;83.04
19676;BME280;39539;52.202;9.876;2023-05-21T23:59:38;100761.88;;;18.00;83.00
